M I D A S
Marine Information and Data Acquisition System
Tripno 838 of the Zeeleeuw from 2005-01-14 07:08:01 to 2005-01-14 14:49:40
Back to CruiseResearch ActivitiesStationsMapUnderway DataData graphs

EquipmentUnitsComment
TimeDGPSUTC
LatitudeDGPSDM.mWGS84
LongitudeDGPSDM.mWGS84
HeadingGyrodeg 
SOGDGPSknotsSpeed over ground
COGDGPSdegCourse over ground
DepthEcho soundermeters200 kHz
Missing or incorrect values are displayed as -999
Navigation data collected by the RV Zeeleeuw from 2005-01-14 07:09:25 to 2005-01-14 14:56:18
Time Latitude Longitude Heading SOG COG Depth
2005-01-14 07:10:31 51°13.609 2°56.047 120.3 3.4 298 -999
2005-01-14 07:11:31 51°13.639 2°55.955 124.1 4.2 300 -999
2005-01-14 07:12:31 51°13.681 2°55.856 129.9 4.6 307 -999
2005-01-14 07:13:31 51°13.731 2°55.755 139.6 5.1 313 -999
2005-01-14 07:14:31 51°13.793 2°55.683 161.1 2.4 334 9.6
2005-01-14 07:15:31 51°13.813 2°55.666 160.9 2.4 335 5
2005-01-14 07:16:31 51°13.891 2°55.638 180.1 5.6 354 -999
2005-01-14 07:17:31 51°13.971 2°55.669 219.1 3.6 30 5
2005-01-14 07:18:29 51°13.982 2°55.62 295.4 4.6 292 11.4
2005-01-14 07:19:31 51°14.064 2°55.477 325 8.1 321 9.8
2005-01-14 07:20:30 51°14.192 2°55.351 331.6 9.5 327 10.8
2005-01-14 07:21:31 51°14.311 2°55.158 313.5 10.5 310 10.1
2005-01-14 07:22:31 51°14.441 2°54.927 315.5 12.2 309 10.7
2005-01-14 07:23:30 51°14.591 2°54.707 330.2 12.9 322 9.4
2005-01-14 07:24:29 51°14.763 2°54.492 331.3 13.6 324 9.3
2005-01-14 07:25:31 51°14.954 2°54.281 332 13.4 325 8.2
2005-01-14 07:26:31 51°15.137 2°54.073 332.7 13.6 326 8.5
2005-01-14 07:27:30 51°15.324 2°53.868 332.6 13.9 326 9.1
2005-01-14 07:28:30 51°15.527 2°53.688 336.7 14 329 10
2005-01-14 07:29:31 51°15.732 2°53.498 337.2 13.8 329 10.7
2005-01-14 07:30:31 51°15.932 2°53.315 338.4 13.8 330 11.3
2005-01-14 07:31:30 51°16.131 2°53.144 340.4 13.8 332 11.7
2005-01-14 07:32:30 51°16.34 2°52.991 343 13.8 335 12
2005-01-14 07:33:29 51°16.557 2°52.933 4.1 13.5 356 11.2
2005-01-14 07:34:31 51°16.784 2°52.986 22.2 13.2 15 10.1
2005-01-14 07:35:31 51°16.988 2°53.071 22 12.7 16 7.7
2005-01-14 07:36:30 51°17.198 2°53.136 20.8 13.2 12 8.2
2005-01-14 07:37:30 51°17.368 2°53.341 49.6 13.1 44 8.4
2005-01-14 07:38:31 51°17.522 2°53.587 60.2 12.9 56 8.5
2005-01-14 07:39:30 51°17.647 2°53.857 57.1 12.9 51 8.4
2005-01-14 07:40:29 51°17.772 2°54.128 58 12.9 51 8.3
2005-01-14 07:41:31 51°17.906 2°54.411 59.5 12.9 55 8.4
2005-01-14 07:42:31 51°18.033 2°54.686 58.7 12.8 53 8.4
2005-01-14 07:43:30 51°18.157 2°54.957 58.7 12.9 53 8.5
2005-01-14 07:44:31 51°18.295 2°55.229 54.4 13 48 8.7
2005-01-14 07:45:31 51°18.441 2°55.484 55.1 12.9 49 8.9
2005-01-14 07:46:31 51°18.589 2°55.738 54 13 47 9
2005-01-14 07:47:29 51°18.732 2°55.986 54.2 12.9 48 9.4
2005-01-14 07:48:31 51°18.876 2°56.259 56.9 13 49 9.4
2005-01-14 07:49:31 51°19.015 2°56.524 57.6 13 51 9.3
2005-01-14 07:50:30 51°19.143 2°56.794 59.2 12.9 54 9.2
2005-01-14 07:51:30 51°19.266 2°57.073 63.2 12.8 58 9.1
2005-01-14 07:52:29 51°19.375 2°57.36 65.1 12.7 59 9.3
2005-01-14 07:53:31 51°19.49 2°57.658 66.5 12.7 60 9.1
2005-01-14 07:54:30 51°19.59 2°57.949 67.9 12.5 61 9
2005-01-14 07:55:31 51°19.691 2°58.249 69.6 12.5 61 9
2005-01-14 07:56:31 51°19.767 2°58.56 75.1 12.5 70 8.9
2005-01-14 07:57:31 51°19.833 2°58.874 76.6 12.5 71 8.8
2005-01-14 07:58:31 51°19.904 2°59.186 76 12.5 69 8.8
2005-01-14 07:59:30 51°19.971 2°59.493 76.1 12.5 70 8.6
2005-01-14 08:00:31 51°20.041 2°59.811 76.6 12.5 72 8.6
2005-01-14 08:01:31 51°20.11 3°0.122 75.2 12.4 69 8.5
2005-01-14 08:02:31 51°20.176 3°0.432 76.8 12.3 71 8.3
2005-01-14 08:03:30 51°20.223 3°0.745 81.5 12.4 77 8.2
2005-01-14 08:04:29 51°20.278 3°1.052 81.3 12.4 77 7.9
2005-01-14 08:05:31 51°20.33 3°1.374 79.3 12.2 73 7.7
2005-01-14 08:06:31 51°20.378 3°1.684 81.5 12 75 7.7
2005-01-14 08:07:30 51°20.438 3°1.98 81.2 12 75 7.7
2005-01-14 08:08:31 51°20.492 3°2.287 76.5 11.9 72 7.9
2005-01-14 08:09:31 51°20.529 3°2.53 79.9 6.7 75 8.3
2005-01-14 08:10:31 51°20.576 3°2.593 46.9 2.6 23 8.3
2005-01-14 08:11:30 51°20.605 3°2.574 3.8 1.9 310 8.5
2005-01-14 08:12:31 51°20.613 3°2.531 343.4 1.5 275 8.6
2005-01-14 08:13:31 51°20.617 3°2.487 332.1 1.5 280 8.5
2005-01-14 08:14:30 51°20.619 3°2.441 318.5 1.7 279 8.7
2005-01-14 08:15:31 51°20.622 3°2.391 304.9 1.9 267 8.6
2005-01-14 08:16:31 51°20.622 3°2.341 293.2 2 268 8.6
2005-01-14 08:17:31 51°20.621 3°2.291 282 1.8 269 8.6
2005-01-14 08:18:30 51°20.62 3°2.243 272.1 1.8 264 8.7
2005-01-14 08:19:31 51°20.617 3°2.192 266.3 2 268 8.7
2005-01-14 08:20:29 51°20.619 3°2.121 296.6 3.3 272 8.7
2005-01-14 08:21:30 51°20.642 3°2.041 338 3.5 310 8.8
2005-01-14 08:22:30 51°20.69 3°2.022 44.1 2.7 18 8.8
2005-01-14 08:23:31 51°20.711 3°2.086 79.3 3.3 63 8.8
2005-01-14 08:24:30 51°20.743 3°2.17 66.9 3.9 61 9.1
2005-01-14 08:25:30 51°20.771 3°2.252 78.4 3.2 73 9
2005-01-14 08:26:30 51°20.784 3°2.33 82.5 3 81 9
2005-01-14 08:27:30 51°20.798 3°2.406 80.2 3 77 9.1
2005-01-14 08:28:31 51°20.814 3°2.481 79.1 2.9 69 9
2005-01-14 08:29:30 51°20.83 3°2.551 78.6 2.8 68 8.9
2005-01-14 08:30:30 51°20.845 3°2.623 78.9 2.9 71 9
2005-01-14 08:31:31 51°20.862 3°2.695 79.1 2.8 70 9
2005-01-14 08:32:31 51°20.878 3°2.766 78.3 2.8 69 9
2005-01-14 08:33:31 51°20.897 3°2.836 79 2.8 73 9
2005-01-14 08:34:31 51°20.912 3°2.907 79.1 2.8 71 9
2005-01-14 08:35:31 51°20.928 3°2.977 79.3 2.8 67 9
2005-01-14 08:36:31 51°20.944 3°3.049 80.6 2.9 73 9
2005-01-14 08:37:31 51°20.956 3°3.124 80.1 3 74 9
2005-01-14 08:38:31 51°20.975 3°3.198 73.9 3 74 8.9
2005-01-14 08:39:31 51°20.997 3°3.27 73.3 3 62 9
2005-01-14 08:40:31 51°21.019 3°3.34 73.8 3 56 9
2005-01-14 08:41:31 51°21.041 3°3.409 74.6 3 58 9.2
2005-01-14 08:42:30 51°21.061 3°3.476 74.1 2.8 65 9.1
2005-01-14 08:43:31 51°21.082 3°3.546 74.7 2.9 64 9.1
2005-01-14 08:44:29 51°21.101 3°3.613 74.8 2.9 61 9.1
2005-01-14 08:45:31 51°21.122 3°3.684 74.1 2.9 60 9.1
2005-01-14 08:46:29 51°21.142 3°3.75 74.9 2.8 63 9.2
2005-01-14 08:47:31 51°21.162 3°3.819 73.9 2.7 59 9.2
2005-01-14 08:48:30 51°21.181 3°3.883 74.3 2.7 64 9.2
2005-01-14 08:49:29 51°21.201 3°3.944 72.8 2.7 58 9.1
2005-01-14 08:50:30 51°21.224 3°4.009 73.4 2.7 58 9.2
2005-01-14 08:51:30 51°21.245 3°4.069 75.6 2.5 62 9.2
2005-01-14 08:52:30 51°21.259 3°4.129 80.2 2.4 81 9.2
2005-01-14 08:53:31 51°21.27 3°4.193 79.4 2.6 70 9.2
2005-01-14 08:54:31 51°21.286 3°4.261 76 2.8 79 9.2
2005-01-14 08:55:31 51°21.303 3°4.334 74.9 2.9 68 9.3
2005-01-14 08:56:31 51°21.322 3°4.409 76.3 3 72 9.2
2005-01-14 08:57:31 51°21.338 3°4.481 77.5 2.9 69 9.3
2005-01-14 08:58:31 51°21.351 3°4.558 76.1 3 71 9.2
2005-01-14 08:59:31 51°21.366 3°4.637 77.8 3.1 77 9.3
2005-01-14 09:00:31 51°21.374 3°4.716 80.1 3 77 9.2
2005-01-14 09:01:31 51°21.383 3°4.793 79.6 2.9 74 9.2
2005-01-14 09:02:29 51°21.392 3°4.865 79.4 2.8 81 9.3
2005-01-14 09:03:31 51°21.404 3°4.928 77.9 1.7 70 9.2
2005-01-14 09:04:31 51°21.407 3°4.955 83.8 1 70 9.2
2005-01-14 09:05:31 51°21.374 3°5.012 131.7 4.5 150 9
2005-01-14 09:06:31 51°21.29 3°5.108 129.7 7.1 138 8.7
2005-01-14 09:07:31 51°21.203 3°5.244 134.2 8 145 8.3
2005-01-14 09:08:31 51°21.112 3°5.259 178.5 4.7 197 8.1
2005-01-14 09:09:31 51°21.044 3°5.2 197.6 4.9 214 8
2005-01-14 09:10:31 51°20.979 3°5.132 198.4 4.6 211 7.6
2005-01-14 09:11:31 51°20.922 3°5.06 211.8 4.3 225 7.5
2005-01-14 09:12:31 51°20.88 3°4.968 228.5 4.3 239 7.4
2005-01-14 09:13:31 51°20.847 3°4.881 226.2 3.6 235 7.4
2005-01-14 09:14:29 51°20.815 3°4.807 224.2 3.5 239 7.1
2005-01-14 09:15:29 51°20.79 3°4.724 245.4 3.5 246 7.2
2005-01-14 09:16:31 51°20.767 3°4.633 238.9 3.6 243 5.5
2005-01-14 09:17:31 51°20.742 3°4.549 238.2 3.5 241 5.4
2005-01-14 09:18:31 51°20.716 3°4.463 236.6 3.6 241 7.2
2005-01-14 09:19:31 51°20.69 3°4.379 238.5 3.6 251 7.1
2005-01-14 09:20:31 51°20.665 3°4.293 239.4 3.6 248 7.2
2005-01-14 09:21:31 51°20.641 3°4.208 239.6 3.4 242 7
2005-01-14 09:22:30 51°20.618 3°4.125 239.2 3.4 244 7
2005-01-14 09:23:31 51°20.593 3°4.039 239.7 3.5 241 7
2005-01-14 09:24:31 51°20.568 3°3.955 239.5 3.6 248 6.9
2005-01-14 09:25:31 51°20.544 3°3.869 244 3.6 248 6.9
2005-01-14 09:26:31 51°20.521 3°3.78 248 3.6 251 7.1
2005-01-14 09:27:29 51°20.502 3°3.693 254.1 3.6 251 6.9
2005-01-14 09:28:31 51°20.485 3°3.6 256.3 3.5 258 6.9
2005-01-14 09:29:31 51°20.468 3°3.512 257.5 3.5 261 6.9
2005-01-14 09:30:29 51°20.454 3°3.426 261.1 3.5 258 7
2005-01-14 09:31:29 51°20.442 3°3.336 261.4 3.5 260 7.2
2005-01-14 09:32:31 51°20.428 3°3.242 261.2 3.5 257 6.9
2005-01-14 09:33:31 51°20.414 3°3.148 264.1 3.6 257 6.8
2005-01-14 09:34:31 51°20.404 3°3.051 269.3 3.7 265 6.9
2005-01-14 09:35:30 51°20.398 3°2.955 271.9 3.7 267 6.9
2005-01-14 09:36:31 51°20.391 3°2.856 273.1 3.8 263 6.9
2005-01-14 09:37:31 51°20.385 3°2.757 271.5 3.8 263 7.1
2005-01-14 09:38:31 51°20.377 3°2.656 271.1 4 263 7.3
2005-01-14 09:39:31 51°20.37 3°2.53 271.1 5.2 266 5.5
2005-01-14 09:40:31 51°20.362 3°2.385 271.3 5.6 265 7.2
2005-01-14 09:41:29 51°20.351 3°2.236 269 6.1 260 7.3
2005-01-14 09:42:31 51°20.334 3°2.094 261 4.7 257 7.3
2005-01-14 09:43:31 51°20.314 3°1.992 255.3 3.7 251 7.4
2005-01-14 09:44:31 51°20.296 3°1.907 255.4 3.1 251 7.4
2005-01-14 09:45:31 51°20.281 3°1.833 256.5 2.8 252 7.3
2005-01-14 09:46:31 51°20.267 3°1.766 256.8 2.5 254 7.4
2005-01-14 09:47:31 51°20.25 3°1.689 254.8 4.2 251 7.3
2005-01-14 09:48:31 51°20.2 3°1.468 254.1 11.8 251 7.1
2005-01-14 09:49:31 51°20.138 3°1.135 260.4 13.4 257 6.8
2005-01-14 09:50:31 51°20.046 3°0.812 243.4 13.3 240 6.8
2005-01-14 09:51:31 51°20.01 3°0.465 270.1 13.4 264 6.9
2005-01-14 09:52:31 51°19.955 3°0.115 257.6 13.7 255 7.1
2005-01-14 09:53:31 51°19.939 2°59.75 272.8 13.9 266 7.4
2005-01-14 09:54:31 51°19.883 2°59.389 258.4 14.1 254 7.4
2005-01-14 09:55:31 51°19.855 2°59.017 268.5 14.3 261 7.9
2005-01-14 09:56:29 51°19.8 2°58.66 265.4 14.4 262 7.9
2005-01-14 09:57:31 51°19.759 2°58.272 259.1 14.5 254 8.2
2005-01-14 09:58:31 51°19.688 2°57.903 259.2 14.5 256 8.4
2005-01-14 09:59:29 51°19.605 2°57.553 253.5 14.7 248 8.6
2005-01-14 10:00:31 51°19.509 2°57.182 253.7 14.7 249 8.6
2005-01-14 10:01:31 51°19.418 2°56.822 252.1 14.6 248 8.7
2005-01-14 10:02:31 51°19.328 2°56.459 253.2 14.7 248 9
2005-01-14 10:03:30 51°19.239 2°56.101 253.6 14.7 250 9
2005-01-14 10:04:31 51°19.15 2°55.731 253.7 14.7 248 9.2
2005-01-14 10:05:31 51°19.062 2°55.366 254.5 14.8 250 9.5
2005-01-14 10:06:29 51°18.977 2°55.012 254.4 14.9 249 9.5
2005-01-14 10:07:31 51°18.885 2°54.633 253.6 14.8 250 9.7
2005-01-14 10:08:31 51°18.795 2°54.268 254.4 14.8 249 9.6
2005-01-14 10:09:31 51°18.707 2°53.901 254 14.8 249 9.6
2005-01-14 10:10:31 51°18.618 2°53.535 254.4 14.8 248 9.7
2005-01-14 10:11:30 51°18.52 2°53.181 251.7 14.9 244 9.6
2005-01-14 10:12:31 51°18.397 2°52.833 242.1 14.9 235 9.5
2005-01-14 10:13:30 51°18.228 2°52.563 214.8 14.3 213 9.3
2005-01-14 10:14:31 51°17.991 2°52.446 193.7 14.6 193 8.9
2005-01-14 10:15:31 51°17.754 2°52.339 195.2 15.2 195 8.7
2005-01-14 10:16:31 51°17.516 2°52.287 175.5 14.3 176 8.8
2005-01-14 10:17:31 51°17.274 2°52.303 177.6 14.4 176 8.6
2005-01-14 10:18:29 51°17.041 2°52.316 178.8 14.4 179 8.4
2005-01-14 10:19:31 51°16.793 2°52.32 185.7 14.7 184 8
2005-01-14 10:20:31 51°16.554 2°52.337 176.3 14.9 177 9.5
2005-01-14 10:21:31 51°16.307 2°52.346 179.2 15 180 10.8
2005-01-14 10:22:31 51°16.063 2°52.348 180 14.8 180 11.2
2005-01-14 10:23:31 51°15.821 2°52.345 179.6 14.7 181 11
2005-01-14 10:24:31 51°15.58 2°52.343 178.7 14.4 181 10.5
2005-01-14 10:25:31 51°15.339 2°52.341 177.7 14.4 179 10.1
2005-01-14 10:26:31 51°15.1 2°52.342 177.8 14.2 179 9.6
2005-01-14 10:27:31 51°14.903 2°52.366 172.7 9 176 9.1
2005-01-14 10:28:31 51°14.811 2°52.349 198.7 4.3 199 8.8
2005-01-14 10:29:30 51°14.778 2°52.307 235 2.2 224 8.8
2005-01-14 10:30:31 51°14.759 2°52.262 245.3 1.9 230 8.7
2005-01-14 10:31:31 51°14.744 2°52.221 243.7 1.7 237 8.8
2005-01-14 10:32:29 51°14.729 2°52.186 242 1.6 235 8.8
2005-01-14 10:33:31 51°14.716 2°52.151 245.3 1.4 247 8.8
2005-01-14 10:34:31 51°14.705 2°52.12 250 1.4 232 8.7
2005-01-14 10:35:31 51°14.693 2°52.068 264.1 2.9 253 8.8
2005-01-14 10:36:31 51°14.675 2°51.968 262.8 4.4 252 8.8
2005-01-14 10:37:31 51°14.652 2°51.848 259.1 4.9 251 8.8
2005-01-14 10:38:31 51°14.625 2°51.727 257.9 4.5 249 8.9
2005-01-14 10:39:31 51°14.603 2°51.629 257.7 3.6 253 8.9
2005-01-14 10:40:31 51°14.583 2°51.544 257.2 3.4 252 9
2005-01-14 10:41:31 51°14.562 2°51.459 256.9 3.5 248 8.8
2005-01-14 10:42:31 51°14.542 2°51.372 258.2 3.6 245 8.9
2005-01-14 10:43:31 51°14.522 2°51.284 258.4 3.5 251 8.8
2005-01-14 10:44:29 51°14.502 2°51.199 256.9 3.5 255 8.7
2005-01-14 10:45:29 51°14.48 2°51.111 255.5 3.5 249 8.7
2005-01-14 10:46:29 51°14.456 2°51.026 251.7 3.5 244 8.8
2005-01-14 10:47:31 51°14.43 2°50.94 249 3.5 245 8.7
2005-01-14 10:48:30 51°14.404 2°50.86 248.3 3.5 245 8.8
2005-01-14 10:49:31 51°14.378 2°50.776 248.1 3.5 244 8.8
2005-01-14 10:50:31 51°14.351 2°50.694 247.9 3.5 246 8.7
2005-01-14 10:51:31 51°14.325 2°50.61 248.1 3.5 244 8.7
2005-01-14 10:52:31 51°14.298 2°50.526 248.3 3.5 247 8.7
2005-01-14 10:53:31 51°14.272 2°50.441 249.5 3.6 246 8.6
2005-01-14 10:54:29 51°14.246 2°50.36 249.7 3.5 248 8.7
2005-01-14 10:55:31 51°14.22 2°50.271 250.1 3.6 243 8.8
2005-01-14 10:56:31 51°14.194 2°50.186 249.1 3.6 239 8.6
2005-01-14 10:57:31 51°14.166 2°50.102 249.5 3.6 250 8.6
2005-01-14 10:58:30 51°14.141 2°50.018 250.3 3.6 244 8.6
2005-01-14 10:59:31 51°14.114 2°49.931 249.5 3.5 241 8.5
2005-01-14 11:00:31 51°14.087 2°49.847 249.3 3.6 240 8.3
2005-01-14 11:01:30 51°14.06 2°49.764 248.8 3.5 247 8.5
2005-01-14 11:02:31 51°14.034 2°49.68 249 3.5 241 8.5
2005-01-14 11:03:31 51°14.005 2°49.602 248.9 3.4 238 8.4
2005-01-14 11:04:31 51°13.98 2°49.523 250.5 3.4 248 8.5
2005-01-14 11:05:31 51°13.955 2°49.441 249.8 3.4 241 8.5
2005-01-14 11:06:31 51°13.929 2°49.36 249.6 3.5 238 8.6
2005-01-14 11:07:30 51°13.904 2°49.28 249.9 3.4 243 8.5
2005-01-14 11:08:29 51°13.878 2°49.198 249.3 3.6 243 8.5
2005-01-14 11:09:30 51°13.849 2°49.105 249.9 4 244 8.5
2005-01-14 11:10:31 51°13.82 2°49.005 251.6 4.1 245 8.6
2005-01-14 11:11:31 51°13.796 2°48.902 261 4.2 250 9
2005-01-14 11:12:31 51°13.781 2°48.801 270 3.4 262 9.3
2005-01-14 11:13:31 51°13.773 2°48.723 275.6 2.7 261 9.5
2005-01-14 11:14:30 51°13.782 2°48.636 320 4.5 301 10
2005-01-14 11:15:31 51°13.846 2°48.643 44.2 4 37 10.1
2005-01-14 11:16:31 51°13.892 2°48.713 49.4 3.9 47 10.1
2005-01-14 11:17:31 51°13.927 2°48.794 62.3 3.8 60 10.3
2005-01-14 11:18:31 51°13.956 2°48.882 61.2 3.7 56 10.1
2005-01-14 11:19:31 51°13.988 2°48.966 59.1 3.7 59 10.2
2005-01-14 11:20:31 51°14.018 2°49.041 59.6 3.1 59 10.3
2005-01-14 11:21:31 51°14.043 2°49.109 59.9 3 61 10.3
2005-01-14 11:22:31 51°14.068 2°49.177 60.2 3 59 10.1
2005-01-14 11:23:29 51°14.093 2°49.242 59.5 3 61 10.3
2005-01-14 11:24:29 51°14.118 2°49.31 59.8 3 58 10.3
2005-01-14 11:25:31 51°14.145 2°49.379 59.6 3 62 10.2
2005-01-14 11:26:31 51°14.171 2°49.446 59.6 3 60 10.4
2005-01-14 11:27:30 51°14.197 2°49.512 59.5 3 61 10.3
2005-01-14 11:28:31 51°14.224 2°49.58 59.9 3 56 10.5
2005-01-14 11:29:31 51°14.247 2°49.649 64.2 3 58 10.4
2005-01-14 11:30:31 51°14.269 2°49.72 65.2 3 59 10.5
2005-01-14 11:31:30 51°14.29 2°49.789 64.6 3 70 10.4
2005-01-14 11:32:31 51°14.312 2°49.861 63.9 3 68 10.5
2005-01-14 11:33:29 51°14.335 2°49.929 61.9 3 66 10.4
2005-01-14 11:34:31 51°14.362 2°49.998 58.4 3 54 10.4
2005-01-14 11:35:29 51°14.39 2°50.06 58.2 2.9 58 10.6
2005-01-14 11:36:31 51°14.418 2°50.128 58.8 3 59 10.5
2005-01-14 11:37:31 51°14.445 2°50.194 58.6 3 55 10.6
2005-01-14 11:38:31 51°14.472 2°50.261 59.1 3 53 10.6
2005-01-14 11:39:31 51°14.5 2°50.328 58.7 3.1 60 10.7
2005-01-14 11:40:31 51°14.528 2°50.394 59.5 3.1 56 10.6
2005-01-14 11:41:31 51°14.555 2°50.463 59.8 3.1 59 11
2005-01-14 11:42:31 51°14.582 2°50.53 60.2 3.1 53 10.8
2005-01-14 11:43:31 51°14.609 2°50.599 59.5 3.1 61 11.1
2005-01-14 11:44:29 51°14.636 2°50.664 58.7 3 61 11
2005-01-14 11:45:31 51°14.664 2°50.734 61.5 3.1 62 11.1
2005-01-14 11:46:31 51°14.688 2°50.807 65.2 3.1 64 11
2005-01-14 11:47:31 51°14.709 2°50.881 67.1 3.2 75 10.9
2005-01-14 11:48:31 51°14.72 2°50.975 85.6 3.9 90 11.1
2005-01-14 11:49:29 51°14.706 2°51.076 107.2 4.1 112 10.9
2005-01-14 11:50:31 51°14.673 2°51.161 126 3.1 131 10.6
2005-01-14 11:51:31 51°14.637 2°51.195 143 2.3 163 10.4
2005-01-14 11:52:31 51°14.608 2°51.207 149.3 1.6 170 10.3
2005-01-14 11:53:31 51°14.581 2°51.213 159.9 2.3 174 10.1
2005-01-14 11:54:31 51°14.532 2°51.185 216.1 3.6 211 9.9
2005-01-14 11:55:31 51°14.503 2°51.131 243.8 2.1 234 9.8
2005-01-14 11:56:31 51°14.488 2°51.086 257.1 1.8 241 9.8
2005-01-14 11:57:31 51°14.475 2°51.038 255.9 3.3 246 9.8
2005-01-14 11:58:31 51°14.468 2°50.865 280.2 9 273 9.9
2005-01-14 11:59:31 51°14.474 2°50.586 278.8 11.1 273 10.2
2005-01-14 12:00:31 51°14.475 2°50.316 273.3 8.2 268 10.7
2005-01-14 12:01:29 51°14.484 2°50.148 290.6 5.4 280 11.1
2005-01-14 12:02:31 51°14.499 2°50.013 286.4 5.9 276 11.5
2005-01-14 12:03:31 51°14.462 2°49.796 250 11.8 245 11.6
2005-01-14 12:04:29 51°14.357 2°49.486 244.6 14.2 241 11.4
2005-01-14 12:05:31 51°14.236 2°49.145 245 14.3 241 11.3
2005-01-14 12:06:31 51°14.106 2°48.825 237.2 14.4 233 11.2
2005-01-14 12:07:30 51°13.957 2°48.533 232.6 14.5 230 11.1
2005-01-14 12:08:30 51°13.802 2°48.243 232.4 14.4 228 11
2005-01-14 12:09:30 51°13.648 2°47.951 233.3 14.3 231 10.9
2005-01-14 12:10:31 51°13.493 2°47.656 233.2 14.3 231 10.6
2005-01-14 12:11:31 51°13.346 2°47.36 236.7 14.1 232 10.3
2005-01-14 12:12:30 51°13.209 2°47.064 238 14.1 235 10.2
2005-01-14 12:13:31 51°13.067 2°46.757 237.3 14.1 234 10
2005-01-14 12:14:31 51°12.927 2°46.457 237.4 14 232 9.5
2005-01-14 12:15:31 51°12.786 2°46.154 236.8 14.4 233 9.7
2005-01-14 12:16:31 51°12.645 2°45.856 237.2 14.1 233 9.1
2005-01-14 12:17:30 51°12.516 2°45.558 247.3 13.7 241 8.7
2005-01-14 12:18:31 51°12.481 2°45.197 266.5 13.5 261 8.1
2005-01-14 12:19:31 51°12.447 2°44.842 268.5 13.4 263 8.2
2005-01-14 12:20:31 51°12.404 2°44.483 260.6 13.9 255 8.9
2005-01-14 12:21:31 51°12.346 2°44.122 258.3 14.2 255 9.9
2005-01-14 12:22:31 51°12.278 2°43.762 259 14.2 254 10.9
2005-01-14 12:23:30 51°12.205 2°43.417 253.5 14.1 248 11
2005-01-14 12:24:31 51°12.118 2°43.069 252.5 14.1 248 11.1
2005-01-14 12:25:29 51°12.038 2°42.734 254.4 14 249 11.8
2005-01-14 12:26:31 51°11.937 2°42.388 244.3 13.9 240 12.6
2005-01-14 12:27:31 51°11.82 2°42.069 244.1 13.8 240 13.8
2005-01-14 12:28:31 51°11.702 2°41.753 243.4 13.9 239 13.8
2005-01-14 12:29:31 51°11.57 2°41.454 237.3 13.8 233 13.9
2005-01-14 12:30:31 51°11.434 2°41.16 237.3 13.8 233 13.8
2005-01-14 12:31:31 51°11.298 2°40.865 237.3 13.8 232 14.2
2005-01-14 12:32:31 51°11.14 2°40.598 229 13.8 225 14.6
2005-01-14 12:33:31 51°10.98 2°40.336 230 13.9 227 14.5
2005-01-14 12:34:30 51°10.836 2°40.098 226.8 10.2 224 14.8
2005-01-14 12:35:29 51°10.754 2°39.998 230.7 4.6 224 15
2005-01-14 12:36:30 51°10.728 2°39.933 267 1.6 250 15.2
2005-01-14 12:37:29 51°10.727 2°39.898 284.4 1.2 278 15.3
2005-01-14 12:38:30 51°10.728 2°39.87 279.4 0.9 266 15.4
2005-01-14 12:39:31 51°10.727 2°39.848 272.3 0.7 272 15.5
2005-01-14 12:40:31 51°10.726 2°39.831 265.5 0.6 253 15.5
2005-01-14 12:41:31 51°10.724 2°39.819 259.5 0.4 238 15.4
2005-01-14 12:42:29 51°10.702 2°39.779 225.2 3.3 221 15.7
2005-01-14 12:43:29 51°10.652 2°39.697 236 5 231 15.8
2005-01-14 12:44:31 51°10.605 2°39.573 244.6 5.5 240 16
2005-01-14 12:45:31 51°10.562 2°39.465 240.9 4.4 237 16.2
2005-01-14 12:46:31 51°10.529 2°39.37 247.3 3.9 239 16.4
2005-01-14 12:47:31 51°10.498 2°39.281 246 3.8 241 16.6
2005-01-14 12:48:31 51°10.468 2°39.196 244 3.6 240 16.8
2005-01-14 12:49:31 51°10.437 2°39.116 242.9 3.4 235 16.6
2005-01-14 12:50:29 51°10.407 2°39.042 242.8 3.4 239 16.6
2005-01-14 12:51:31 51°10.376 2°38.964 243 3.4 237 17.4
2005-01-14 12:52:30 51°10.346 2°38.89 243.8 3.4 242 17.5
2005-01-14 12:53:29 51°10.318 2°38.817 243.6 3.2 241 17.5
2005-01-14 12:54:29 51°10.292 2°38.746 248.1 3 245 17.6
2005-01-14 12:55:31 51°10.269 2°38.671 249.9 3 244 17.9
2005-01-14 12:56:29 51°10.25 2°38.603 250.5 2.9 249 17.8
2005-01-14 12:57:31 51°10.23 2°38.532 250 2.8 248 17.7
2005-01-14 12:58:31 51°10.21 2°38.464 249.2 2.8 247 17.5
2005-01-14 12:59:29 51°10.189 2°38.402 243.6 2.7 238 17.5
2005-01-14 13:00:31 51°10.161 2°38.342 238.7 2.6 232 17.4
2005-01-14 13:01:30 51°10.134 2°38.287 237.7 2.7 233 17.9
2005-01-14 13:02:29 51°10.107 2°38.233 240.5 2.6 234 18.4
2005-01-14 13:03:31 51°10.082 2°38.174 243.5 2.6 233 18.6
2005-01-14 13:04:31 51°10.059 2°38.117 244.3 2.5 239 18.6
2005-01-14 13:05:30 51°10.036 2°38.061 244.1 2.5 236 18.7
2005-01-14 13:06:31 51°10.013 2°38.004 244.2 2.5 236 18.7
2005-01-14 13:07:30 51°9.992 2°37.949 244.9 2.5 241 18.7
2005-01-14 13:08:30 51°9.971 2°37.893 244.5 2.4 238 18.7
2005-01-14 13:09:30 51°9.949 2°37.838 244.4 2.4 237 18.9
2005-01-14 13:10:30 51°9.926 2°37.776 244.5 2.9 233 18.8
2005-01-14 13:11:30 51°9.899 2°37.707 242.1 3.1 235 18.8
2005-01-14 13:12:30 51°9.868 2°37.638 239.7 3.2 237 18.8
2005-01-14 13:13:31 51°9.837 2°37.569 241.4 3.1 236 18.8
2005-01-14 13:14:31 51°9.81 2°37.5 244.2 3 243 18.8
2005-01-14 13:15:31 51°9.791 2°37.428 255 2.9 254 18.8
2005-01-14 13:16:31 51°9.786 2°37.349 268.5 2.8 276 18.9
2005-01-14 13:17:31 51°9.798 2°37.3 285.3 1.7 305 19
2005-01-14 13:18:29 51°9.816 2°37.277 295.9 1.3 332 19.2
2005-01-14 13:19:31 51°9.839 2°37.27 303.2 1.6 2 19.4
2005-01-14 13:20:31 51°9.883 2°37.265 345.2 4.2 1 19.5
2005-01-14 13:21:30 51°9.951 2°37.338 40.2 5.1 45 19.9
2005-01-14 13:22:31 51°10.009 2°37.44 44.7 5.2 51 20
2005-01-14 13:23:30 51°10.016 2°37.621 123.3 10.1 117 19.7
2005-01-14 13:24:31 51°9.846 2°37.819 158.2 13.6 148 18.2
2005-01-14 13:25:31 51°9.649 2°38.007 157.9 13.6 150 15.7
2005-01-14 13:26:31 51°9.452 2°38.19 158.9 13.6 150 13.3
2005-01-14 13:27:31 51°9.354 2°38.347 122.2 6.3 105 12.8
2005-01-14 13:28:31 51°9.361 2°38.481 73.7 4.8 72 12.7
2005-01-14 13:29:30 51°9.393 2°38.61 74.1 5.7 66 12.6
2005-01-14 13:30:29 51°9.421 2°38.745 77.6 4.9 70 12.6
2005-01-14 13:31:31 51°9.445 2°38.86 76.7 4.2 77 12.6
2005-01-14 13:32:31 51°9.466 2°38.956 76.8 3.7 69 12.6
2005-01-14 13:33:31 51°9.487 2°39.042 72 3.4 66 12.6
2005-01-14 13:34:30 51°9.508 2°39.12 68.8 3.2 68 12.6
2005-01-14 13:35:31 51°9.531 2°39.197 69.2 3.2 68 12.7
2005-01-14 13:36:31 51°9.552 2°39.271 69.6 3.1 65 12.6
2005-01-14 13:37:31 51°9.572 2°39.344 71.8 3 67 12.6
2005-01-14 13:38:30 51°9.592 2°39.419 72.6 3.2 69 12.6
2005-01-14 13:39:31 51°9.612 2°39.501 76.4 3.4 69 12.7
2005-01-14 13:40:29 51°9.631 2°39.583 78.7 3.4 69 12.6
2005-01-14 13:41:31 51°9.651 2°39.672 80.3 3.5 71 12.6
2005-01-14 13:42:31 51°9.671 2°39.759 81.4 3.5 69 12.7
2005-01-14 13:43:31 51°9.69 2°39.847 76.5 3.5 67 12.6
2005-01-14 13:44:31 51°9.713 2°39.934 70.2 3.6 72 12.6
2005-01-14 13:45:30 51°9.738 2°40.019 67.8 3.6 64 12.5
2005-01-14 13:46:31 51°9.762 2°40.108 71.3 3.6 68 12.7
2005-01-14 13:47:39 51°9.788 2°40.207 74 3.6 68 12.6
2005-01-14 13:48:39 51°9.811 2°40.296 77.6 3.6 68 12.7
2005-01-14 13:49:38 51°9.831 2°40.384 80.4 3.6 70 12.6
2005-01-14 13:50:39 51°9.851 2°40.476 83.3 3.6 71 12.6
2005-01-14 13:51:39 51°9.87 2°40.566 84.8 3.6 72 12.6
2005-01-14 13:52:38 51°9.888 2°40.666 85.3 4.5 73 12.5
2005-01-14 13:53:39 51°9.909 2°40.791 85.5 5 80 12.5
2005-01-14 13:54:39 51°9.928 2°40.923 86.6 5.2 78 12.3
2005-01-14 13:55:37 51°9.947 2°41.055 86.5 5.3 78 12.2
2005-01-14 13:56:39 51°9.968 2°41.197 86.3 5.2 76 12.1
2005-01-14 13:57:38 51°9.985 2°41.314 92.9 4.3 78 12.1
2005-01-14 13:58:37 51°9.998 2°41.42 95.3 4.8 83 12
2005-01-14 13:59:39 51°10.022 2°41.668 82.7 11.6 77 11.8
2005-01-14 14:00:37 51°10.093 2°41.965 71.8 12.7 69 11.7
2005-01-14 14:01:38 51°10.167 2°42.258 71.8 9.4 69 11.8
2005-01-14 14:02:39 51°10.22 2°42.441 64.2 6.4 59 11.9
2005-01-14 14:03:39 51°10.26 2°42.578 87.2 5.4 78 12
2005-01-14 14:04:39 51°10.25 2°42.698 142.5 4 115 12
2005-01-14 14:05:37 51°10.234 2°42.76 174.1 1.9 108 12.1
2005-01-14 14:06:38 51°10.229 2°42.806 183.6 1.8 92 12.1
2005-01-14 14:07:39 51°10.231 2°42.843 191.8 1.4 82 12.1
2005-01-14 14:08:38 51°10.236 2°42.879 198.3 1.4 75 12.1
2005-01-14 14:09:39 51°10.244 2°42.913 205.4 1.2 61 12.1
2005-01-14 14:10:38 51°10.232 2°42.95 167.3 3.1 132 12.2
2005-01-14 14:11:39 51°10.224 2°43.1 84.1 8.3 78 12.4
2005-01-14 14:12:38 51°10.318 2°43.402 70.2 14.5 66 12.2
2005-01-14 14:13:39 51°10.411 2°43.774 73.6 14.9 68 12.1
2005-01-14 14:14:39 51°10.502 2°44.142 73.8 14.9 69 11.9
2005-01-14 14:15:39 51°10.593 2°44.513 74.2 15 69 11.8
2005-01-14 14:16:38 51°10.68 2°44.877 74 14.9 69 11.6
2005-01-14 14:17:37 51°10.769 2°45.237 72.8 14.9 67 11
2005-01-14 14:18:39 51°10.865 2°45.615 72.6 14.9 67 11.3
2005-01-14 14:19:38 51°10.957 2°45.975 71 14.9 66 11.2
2005-01-14 14:20:39 51°11.068 2°46.336 69 14.9 65 11.3
2005-01-14 14:21:38 51°11.174 2°46.687 69.1 15 65 11.2
2005-01-14 14:22:39 51°11.306 2°47.03 57 15 55 11.4
2005-01-14 14:23:39 51°11.438 2°47.367 62.6 15 58 11.3
2005-01-14 14:24:38 51°11.565 2°47.701 62.4 14.9 59 11.6
2005-01-14 14:25:39 51°11.697 2°48.045 62.7 15 58 11.8
2005-01-14 14:26:39 51°11.827 2°48.386 63.7 15.1 59 12
2005-01-14 14:27:38 51°11.96 2°48.716 58.7 15.1 56 12
2005-01-14 14:28:38 51°12.104 2°49.044 59.1 15.1 55 12.1
2005-01-14 14:29:39 51°12.249 2°49.377 58.6 15.1 55 12.3
2005-01-14 14:30:38 51°12.389 2°49.701 58.7 15.1 55 12.4
2005-01-14 14:31:39 51°12.534 2°50.036 59.3 15.1 56 12.5
2005-01-14 14:32:39 51°12.677 2°50.363 59.5 15 55 12.7
2005-01-14 14:33:39 51°12.82 2°50.692 58.7 15.2 55 12.9
2005-01-14 14:34:38 51°12.962 2°51.017 59.4 15.2 55 12.8
2005-01-14 14:35:39 51°13.106 2°51.354 59.5 15.1 56 12.9
2005-01-14 14:36:39 51°13.249 2°51.685 59.9 15.2 56 13.1
2005-01-14 14:37:38 51°13.392 2°52.01 59.3 15.2 55 13.2
2005-01-14 14:38:39 51°13.539 2°52.348 59.2 15.2 56 13
2005-01-14 14:39:39 51°13.682 2°52.679 59.3 15.2 56 13.1
2005-01-14 14:40:39 51°13.825 2°53.011 59.4 15.2 55 12.9
2005-01-14 14:41:39 51°13.969 2°53.342 59.7 15.2 56 12.7
2005-01-14 14:42:37 51°14.109 2°53.661 58.9 15.2 54 12.6
2005-01-14 14:43:39 51°14.258 2°54.005 58.8 15.3 53 12.4
2005-01-14 14:44:38 51°14.402 2°54.327 60.6 14.8 57 12.7
2005-01-14 14:45:38 51°14.441 2°54.693 97.1 14 90 14.2
2005-01-14 14:46:38 51°14.38 2°55.028 126.3 13 117 14.1
2005-01-14 14:47:39 51°14.251 2°55.273 135.5 10.7 133 14
2005-01-14 14:48:38 51°14.127 2°55.424 156.8 9.3 154 13.4
2005-01-14 14:49:38 51°13.991 2°55.523 157.7 8.8 156 13.9
2005-01-14 14:50:38 51°13.866 2°55.612 158.6 7.9 156 13.8
2005-01-14 14:51:38 51°13.761 2°55.716 139.2 7 138 13.2
2005-01-14 14:52:37 51°13.69 2°55.845 130.3 5.7 127 13.4
2005-01-14 14:53:38 51°13.642 2°55.956 125.4 4.5 122 13.4
2005-01-14 14:54:37 51°13.61 2°56.047 119.4 3.3 115 13
2005-01-14 14:55:38 51°13.596 2°56.098 125.4 0.5 138 10.9